X  Close Metar Aviation Weather Data     KRYV Watertown Municipal Airport
Temperature
39°F Temperature
39°F Dewpoint
100% Humidity



Wind
5 MPH
8 KM/H
2 M/S
4 KTS



50°
NE
Current Conditions

Mist Mist
Pressure 1010.52 (hPa) - 29.84 (inHg)
Visibility 5 (mile) - 8 (km)
Airport
Airport-code KRYV

Location: Watertown Municipal Airport
Distance: 8 (mi)

Metar:
KRYV 251355Z AUTO 05004KT 5SM BR OVC004 04/04 A2984 RMK AO2 T00410041

Time: 25-11-2020 07:55 CST